createdAt,value
2022-12-03T00:01:21.349Z,13.25
2022-12-03T00:03:49.021Z,14.68
2022-12-03T00:06:17.630Z,15.90
2022-12-03T00:08:45.178Z,14.55
2022-12-03T00:11:12.752Z,14.70
2022-12-03T00:13:40.311Z,17.48
2022-12-03T00:16:07.998Z,14.88
2022-12-03T00:18:36.048Z,16.15
2022-12-03T00:21:03.627Z,16.08
2022-12-03T00:23:31.263Z,16.88
2022-12-03T00:25:58.855Z,14.55
2022-12-03T00:28:26.416Z,17.42
2022-12-03T00:30:54.283Z,14.02
2022-12-03T00:33:23.111Z,14.88
2022-12-03T00:35:50.719Z,16.42
2022-12-03T00:38:18.245Z,16.70
2022-12-03T00:40:45.799Z,14.77
2022-12-03T00:43:13.378Z,15.30
2022-12-03T00:45:41.120Z,14.88
2022-12-03T00:48:08.697Z,17.65
2022-12-03T00:50:36.260Z,14.88
2022-12-03T00:53:03.851Z,15.18
2022-12-03T00:55:31.482Z,16.55
2022-12-03T00:57:59.396Z,15.60
2022-12-03T01:00:26.963Z,14.75
2022-12-03T01:02:54.691Z,17.55
2022-12-03T01:05:22.576Z,16.15
2022-12-03T01:07:50.190Z,16.73
2022-12-03T01:10:17.834Z,15.30
2022-12-03T01:12:45.487Z,13.88
2022-12-03T01:15:13.051Z,17.85
2022-12-03T01:17:41.947Z,16.17
2022-12-03T01:20:10.339Z,16.42
2022-12-03T01:22:37.955Z,16.73
2022-12-03T01:25:05.990Z,15.88
2022-12-03T01:27:33.534Z,19.17
2022-12-03T01:30:01.063Z,16.13
2022-12-03T01:32:28.632Z,16.75
2022-12-03T01:34:56.860Z,16.05
2022-12-03T01:37:26.102Z,15.82
2022-12-03T01:39:53.727Z,18.15
2022-12-03T01:42:33.926Z,17.42
2022-12-03T01:45:01.799Z,16.25
2022-12-03T01:47:34.714Z,15.85
2022-12-03T01:50:15.756Z,18.67
2022-12-03T01:52:43.400Z,18.90
2022-12-03T01:55:19.741Z,17.98
2022-12-03T01:57:53.079Z,15.60
2022-12-03T02:00:23.499Z,16.15
2022-12-03T02:03:02.049Z,17.30
2022-12-03T02:05:33.299Z,17.27
2022-12-03T02:08:01.306Z,16.95
2022-12-03T02:10:32.586Z,17.42
2022-12-03T02:13:05.385Z,17.17
2022-12-03T02:15:33.205Z,17.50
2022-12-03T02:18:00.909Z,17.95
2022-12-03T02:20:28.560Z,17.27
2022-12-03T02:23:08.424Z,17.85
2022-12-03T02:25:36.759Z,17.17
2022-12-03T02:28:05.885Z,18.58
2022-12-03T02:30:33.580Z,16.48
2022-12-03T02:33:02.050Z,18.52
2022-12-03T02:35:35.196Z,16.92
2022-12-03T02:38:21.774Z,17.13
2022-12-03T02:40:52.503Z,18.65
2022-12-03T02:43:21.140Z,17.67
2022-12-03T02:45:52.133Z,17.55
2022-12-03T02:48:39.262Z,18.27
2022-12-03T02:51:09.528Z,17.50
2022-12-03T02:53:42.383Z,16.55
2022-12-03T02:56:15.408Z,16.25
2022-12-03T02:58:44.972Z,19.00
2022-12-03T03:01:12.619Z,19.65
2022-12-03T03:03:40.510Z,15.00
2022-12-03T03:06:08.993Z,16.92
2022-12-03T03:08:38.260Z,17.88
2022-12-03T03:11:06.065Z,18.13
2022-12-03T03:13:34.162Z,18.80
2022-12-03T03:16:03.961Z,16.73
2022-12-03T03:18:32.731Z,17.02
2022-12-03T03:21:00.553Z,18.45
2022-12-03T03:23:28.137Z,19.63
2022-12-03T03:26:05.609Z,18.25
2022-12-03T03:28:36.115Z,18.17
2022-12-03T03:31:06.366Z,18.27
2022-12-03T03:33:34.110Z,18.92
2022-12-03T03:36:01.931Z,16.58
2022-12-03T03:38:30.689Z,17.38
2022-12-03T03:40:59.322Z,18.90
2022-12-03T03:43:26.928Z,18.75
2022-12-03T03:45:55.012Z,17.75
2022-12-03T03:48:23.271Z,16.83
2022-12-03T03:50:51.660Z,18.33
2022-12-03T03:53:20.265Z,18.67
2022-12-03T03:55:47.847Z,17.15
2022-12-03T03:58:17.210Z,16.33
2022-12-03T04:00:47.992Z,18.08
2022-12-03T04:03:15.651Z,19.55
2022-12-03T04:05:43.205Z,18.55
2022-12-03T04:08:10.853Z,19.48
2022-12-03T04:10:56.827Z,19.67
2022-12-03T04:13:24.353Z,15.73
2022-12-03T04:15:51.963Z,17.02
2022-12-03T04:18:37.967Z,20.92
2022-12-03T04:21:24.093Z,19.65
2022-12-03T04:26:37.711Z,18.65
2022-12-03T04:29:05.254Z,18.88
2022-12-03T04:31:51.239Z,20.58
2022-12-03T04:34:37.742Z,19.58
2022-12-03T04:37:05.637Z,19.52
2022-12-03T04:39:33.374Z,18.55
2022-12-03T04:42:00.928Z,21.05
2022-12-03T04:44:36.279Z,20.48
2022-12-03T04:47:08.309Z,20.77
2022-12-03T04:49:37.869Z,19.70
2022-12-03T04:52:05.996Z,21.20
2022-12-03T04:54:33.948Z,19.95
2022-12-03T04:57:01.623Z,21.83
2022-12-03T04:59:29.606Z,22.20
2022-12-03T05:01:59.079Z,23.02
2022-12-03T05:04:26.874Z,22.77
2022-12-03T05:06:54.476Z,19.40
2022-12-03T05:09:22.063Z,21.40
2022-12-03T05:11:49.669Z,20.15
2022-12-03T05:14:17.391Z,19.35
2022-12-03T05:16:45.033Z,21.23
2022-12-03T05:19:12.666Z,21.13
2022-12-03T05:21:40.212Z,20.77
2022-12-03T05:24:07.914Z,21.20
2022-12-03T05:26:35.550Z,22.42
2022-12-03T05:29:03.099Z,19.77
2022-12-03T05:31:30.706Z,19.67
2022-12-03T05:33:58.379Z,20.45
2022-12-03T05:36:26.132Z,22.52
2022-12-03T05:38:53.748Z,22.55
2022-12-03T05:41:39.590Z,22.50
2022-12-03T05:44:07.175Z,18.65
2022-12-03T05:46:34.788Z,22.20
2022-12-03T05:49:02.372Z,22.45
2022-12-03T05:51:30.266Z,20.75
2022-12-03T05:53:58.299Z,22.13
2022-12-03T05:56:25.918Z,18.70
2022-12-03T05:58:53.482Z,21.27
2022-12-03T06:01:22.157Z,22.88
2022-12-03T06:03:49.806Z,21.88
2022-12-03T06:06:17.440Z,22.00
2022-12-03T06:08:45.031Z,22.58
2022-12-03T06:11:12.626Z,21.27
2022-12-03T06:13:40.193Z,21.25
2022-12-03T06:16:07.868Z,17.85
2022-12-03T06:18:35.507Z,20.25
2022-12-03T06:21:04.714Z,21.10
2022-12-03T06:23:32.242Z,21.40
2022-12-03T06:25:59.844Z,21.40
2022-12-03T06:28:27.403Z,21.13
2022-12-03T06:30:54.992Z,19.83
2022-12-03T06:33:22.773Z,19.70
2022-12-03T06:35:50.411Z,21.05
2022-12-03T06:38:18.056Z,21.45
2022-12-03T06:40:45.641Z,20.45
2022-12-03T06:43:13.244Z,20.50
2022-12-03T06:45:46.158Z,17.23
2022-12-03T06:48:17.486Z,17.48
2022-12-03T06:50:45.095Z,19.58
2022-12-03T06:53:12.816Z,20.58
2022-12-03T06:55:40.377Z,20.25
2022-12-03T06:58:08.095Z,19.67
2022-12-03T07:00:35.652Z,19.02
2022-12-03T07:03:03.261Z,21.70
2022-12-03T07:05:30.889Z,19.15
2022-12-03T07:07:58.596Z,18.38
2022-12-03T07:10:26.294Z,20.25
2022-12-03T07:12:53.887Z,18.85
2022-12-03T07:15:21.536Z,19.40
2022-12-03T07:17:49.192Z,18.27
2022-12-03T07:20:16.893Z,18.77
2022-12-03T07:22:44.457Z,18.60
2022-12-03T07:25:14.838Z,19.10
2022-12-03T07:27:44.344Z,18.50
2022-12-03T07:30:14.761Z,19.73
2022-12-03T07:32:42.554Z,19.27
2022-12-03T07:35:10.584Z,19.60
2022-12-03T07:37:38.480Z,18.83
2022-12-03T07:40:06.814Z,19.13
2022-12-03T07:42:34.407Z,20.15
2022-12-03T07:45:01.965Z,19.90
2022-12-03T07:47:29.616Z,19.50
2022-12-03T07:49:57.180Z,19.77
2022-12-03T07:52:24.763Z,19.23
2022-12-03T07:54:52.755Z,17.75
2022-12-03T07:57:22.368Z,19.40
2022-12-03T07:59:49.940Z,18.73
2022-12-03T08:02:21.343Z,19.80
2022-12-03T08:04:49.557Z,20.17
2022-12-03T08:07:17.239Z,19.17
2022-12-03T08:09:44.988Z,23.02
2022-12-03T08:12:18.278Z,20.60
2022-12-03T08:14:45.845Z,22.00
2022-12-03T08:17:14.084Z,22.15
2022-12-03T08:19:47.789Z,22.98
2022-12-03T08:22:16.644Z,23.15
2022-12-03T08:24:44.373Z,21.83
2022-12-03T08:27:19.890Z,22.58
2022-12-03T08:29:47.666Z,23.30
2022-12-03T08:32:15.275Z,23.27
2022-12-03T08:34:44.163Z,20.92
2022-12-03T08:37:19.481Z,22.65
2022-12-03T08:39:49.164Z,24.67
2022-12-03T08:42:42.439Z,22.30
2022-12-03T08:45:21.957Z,23.40
2022-12-03T08:47:49.553Z,23.80
2022-12-03T08:50:28.350Z,24.77
2022-12-03T08:53:20.487Z,23.27
2022-12-03T08:55:55.652Z,23.23
2022-12-03T08:58:25.556Z,24.02
2022-12-03T09:00:58.982Z,23.67
2022-12-03T09:03:31.216Z,22.52
2022-12-03T09:05:58.795Z,23.65
2022-12-03T09:08:26.371Z,25.95
2022-12-03T09:10:53.922Z,24.45
2022-12-03T09:13:21.593Z,26.15
2022-12-03T09:15:49.321Z,24.58
2022-12-03T09:18:16.861Z,25.42
2022-12-03T09:20:44.547Z,26.23
2022-12-03T09:23:12.165Z,25.15
2022-12-03T09:25:39.796Z,25.75
2022-12-03T09:28:07.451Z,24.80
2022-12-03T09:30:35.488Z,23.80
2022-12-03T09:33:03.077Z,25.73
2022-12-03T09:35:30.644Z,24.63
2022-12-03T09:37:58.205Z,25.55
2022-12-03T09:40:25.830Z,25.70
2022-12-03T09:42:53.537Z,24.70
2022-12-03T09:45:21.257Z,26.95
2022-12-03T09:47:50.222Z,26.42
2022-12-03T09:50:22.169Z,26.40
2022-12-03T09:52:51.055Z,26.50
2022-12-03T09:55:23.830Z,24.13
2022-12-03T09:57:52.893Z,35.55
2022-12-03T10:00:23.875Z,26.80
2022-12-03T10:02:54.612Z,25.83
2022-12-03T10:05:22.876Z,27.25
2022-12-03T10:07:51.828Z,26.40
2022-12-03T10:10:22.009Z,27.02
2022-12-03T10:12:53.145Z,25.50
2022-12-03T10:15:23.230Z,25.98
2022-12-03T10:17:54.504Z,27.08
2022-12-03T10:20:24.026Z,27.58
2022-12-03T10:22:53.067Z,25.17
2022-12-03T10:25:22.429Z,23.60
2022-12-03T10:28:01.295Z,22.60
2022-12-03T10:30:29.576Z,23.45
2022-12-03T10:32:58.663Z,22.42
2022-12-03T10:35:37.817Z,21.80
2022-12-03T10:38:07.579Z,20.38
2022-12-03T10:40:39.241Z,21.52
2022-12-03T10:43:17.820Z,21.88
2022-12-03T10:46:10.195Z,20.90
2022-12-03T10:48:38.289Z,21.40
2022-12-03T10:51:11.897Z,21.35
2022-12-03T10:53:40.779Z,21.73
2022-12-03T10:56:11.967Z,20.63
2022-12-03T10:58:40.692Z,20.05
2022-12-03T11:01:28.601Z,19.98
2022-12-03T11:04:02.102Z,18.85
2022-12-03T11:06:34.849Z,18.65
2022-12-03T11:09:08.814Z,21.52
2022-12-03T11:11:36.962Z,20.02
2022-12-03T11:14:05.317Z,18.67
2022-12-03T11:16:42.064Z,19.63
2022-12-03T11:19:17.828Z,18.17
2022-12-03T11:22:07.197Z,18.85
2022-12-03T11:24:37.075Z,17.95
2022-12-03T11:27:04.620Z,18.95
2022-12-03T11:29:55.124Z,19.73
2022-12-03T11:32:44.562Z,18.20
2022-12-03T11:35:23.989Z,19.20
2022-12-03T11:37:51.727Z,18.08
2022-12-03T11:40:19.397Z,18.25
2022-12-03T11:42:48.326Z,18.63
2022-12-03T11:45:34.572Z,19.67
2022-12-03T11:50:42.972Z,18.83
2022-12-03T11:53:25.877Z,18.60
2022-12-03T11:56:10.554Z,18.52
2022-12-03T11:58:40.233Z,19.63
2022-12-03T12:01:08.993Z,20.23
2022-12-03T12:03:48.447Z,19.13
2022-12-03T12:06:22.502Z,19.00
2022-12-03T12:08:51.845Z,19.10
2022-12-03T12:11:29.255Z,17.50
2022-12-03T12:14:04.101Z,18.13
2022-12-03T12:16:42.671Z,19.67
2022-12-03T12:19:30.269Z,19.92
2022-12-03T12:22:19.237Z,18.92
2022-12-03T12:25:09.457Z,19.73
2022-12-03T12:27:45.033Z,19.80
2022-12-03T12:30:18.359Z,19.63
2022-12-03T12:32:47.795Z,19.33
2022-12-03T12:35:25.406Z,19.30
2022-12-03T12:38:07.209Z,20.35
2022-12-03T12:40:43.107Z,21.20
2022-12-03T12:43:14.405Z,21.90
2022-12-03T12:45:44.443Z,20.27
2022-12-03T12:48:14.754Z,22.65
2022-12-03T12:50:44.590Z,15.95
2022-12-03T12:53:32.501Z,20.75
2022-12-03T12:56:30.231Z,20.52
2022-12-03T12:59:18.542Z,20.35
2022-12-03T13:01:49.902Z,19.80
2022-12-03T13:04:20.202Z,19.52
2022-12-03T13:06:53.228Z,17.67
2022-12-03T13:09:23.975Z,19.70
2022-12-03T13:11:54.722Z,20.10
2022-12-03T13:14:24.432Z,19.45
2022-12-03T13:16:53.671Z,20.75
2022-12-03T13:19:27.761Z,20.83
2022-12-03T13:22:16.835Z,20.73
2022-12-03T13:24:47.705Z,21.17
2022-12-03T13:27:18.065Z,21.58
2022-12-03T13:30:02.046Z,22.48
2022-12-03T13:32:36.775Z,23.10
2022-12-03T13:35:12.446Z,21.98
2022-12-03T13:37:40.021Z,22.43
2022-12-03T13:40:31.282Z,23.13
2022-12-03T13:42:59.458Z,22.73
2022-12-03T13:45:33.672Z,20.40
2022-12-03T13:48:03.712Z,23.23
2022-12-03T13:50:38.560Z,18.27
2022-12-03T13:53:22.210Z,23.08
2022-12-03T13:55:53.432Z,22.27
2022-12-03T13:58:21.055Z,23.08
2022-12-03T14:00:49.098Z,21.10
2022-12-03T14:03:17.543Z,23.05
2022-12-03T14:05:45.089Z,24.13
2022-12-03T14:08:12.734Z,21.38
2022-12-03T14:10:40.389Z,21.55
2022-12-03T14:13:08.505Z,22.55
2022-12-03T14:15:36.165Z,22.92
2022-12-03T14:18:03.730Z,22.75
2022-12-03T14:20:31.288Z,23.00
2022-12-03T14:22:59.627Z,23.42
2022-12-03T14:25:27.550Z,26.20
2022-12-03T14:27:55.135Z,20.73
2022-12-03T14:30:22.708Z,23.40
2022-12-03T14:32:50.241Z,23.70
2022-12-03T14:35:17.829Z,22.92
2022-12-03T14:37:45.926Z,23.75
2022-12-03T14:40:19.601Z,21.85
2022-12-03T14:42:48.879Z,23.90
2022-12-03T14:45:16.450Z,23.45
2022-12-03T14:47:44.005Z,23.58
2022-12-03T14:50:14.313Z,24.65
2022-12-03T14:52:43.259Z,25.58
2022-12-03T14:55:10.917Z,21.70
2022-12-03T14:57:38.714Z,23.27
2022-12-03T15:00:08.058Z,23.92
2022-12-03T15:02:35.754Z,24.58
2022-12-03T15:05:03.728Z,23.23
2022-12-03T15:07:32.045Z,22.65
2022-12-03T15:09:59.813Z,23.67
2022-12-03T15:12:27.378Z,23.83
2022-12-03T15:14:54.991Z,23.80
2022-12-03T15:17:31.064Z,24.50
2022-12-03T15:19:59.547Z,24.13
2022-12-03T15:22:27.154Z,24.92
2022-12-03T15:24:54.798Z,24.60
2022-12-03T15:27:22.390Z,26.17
2022-12-03T15:29:49.928Z,25.05
2022-12-03T15:32:17.520Z,23.92
2022-12-03T15:34:45.110Z,24.45
2022-12-03T15:37:12.715Z,23.40
2022-12-03T15:39:45.103Z,24.13
2022-12-03T15:42:16.011Z,24.35
2022-12-03T15:44:43.564Z,23.83
2022-12-03T15:47:11.141Z,26.05
2022-12-03T15:49:38.732Z,25.70
2022-12-03T15:52:07.804Z,25.33
2022-12-03T15:54:35.401Z,24.38
2022-12-03T15:57:02.978Z,26.20
2022-12-03T15:59:30.607Z,24.67
2022-12-03T16:01:58.240Z,26.00
2022-12-03T16:04:25.901Z,25.48
2022-12-03T16:06:53.676Z,26.45
2022-12-03T16:09:26.767Z,24.77
2022-12-03T16:11:55.068Z,27.10
2022-12-03T16:14:22.663Z,24.83
2022-12-03T16:16:50.267Z,23.52
2022-12-03T16:19:17.835Z,23.50
2022-12-03T16:21:45.466Z,25.92
2022-12-03T16:24:13.091Z,27.63
2022-12-03T16:26:40.674Z,26.38
2022-12-03T16:29:08.294Z,26.73
2022-12-03T16:31:35.978Z,25.77
2022-12-03T16:34:03.579Z,24.27
2022-12-03T16:36:31.106Z,23.10
2022-12-03T16:38:58.707Z,25.42
2022-12-03T16:41:26.402Z,25.23
2022-12-03T16:43:54.050Z,24.48
2022-12-03T16:46:25.677Z,22.85
2022-12-03T16:49:00.124Z,24.20
2022-12-03T16:51:28.360Z,24.20
2022-12-03T16:53:55.919Z,23.75
2022-12-03T16:56:23.573Z,23.00
2022-12-03T16:58:51.246Z,22.08
2022-12-03T17:01:18.932Z,26.15
2022-12-03T17:03:46.635Z,27.00
2022-12-03T17:06:14.264Z,26.60
2022-12-03T17:08:47.290Z,25.58
2022-12-03T17:11:16.995Z,23.90
2022-12-03T17:13:44.608Z,25.55
2022-12-03T17:16:12.203Z,26.80
2022-12-03T17:18:39.877Z,26.27
2022-12-03T17:21:07.546Z,26.02
2022-12-03T17:23:35.150Z,25.25
2022-12-03T17:26:02.722Z,25.48
2022-12-03T17:28:30.389Z,26.70
2022-12-03T17:30:58.035Z,27.45
2022-12-03T17:33:26.009Z,26.10
2022-12-03T17:35:53.552Z,22.50
2022-12-03T17:38:21.097Z,25.17
2022-12-03T17:40:48.707Z,24.60
2022-12-03T17:43:16.318Z,24.45
2022-12-03T17:45:44.297Z,24.80
2022-12-03T17:48:11.900Z,24.20
2022-12-03T17:50:39.745Z,25.17
2022-12-03T17:53:10.282Z,24.90
2022-12-03T17:55:44.539Z,26.95
2022-12-03T17:58:13.034Z,27.50
2022-12-03T18:00:41.153Z,26.55
2022-12-03T18:03:08.838Z,26.10
2022-12-03T18:05:36.415Z,22.33
2022-12-03T18:08:04.395Z,26.23
2022-12-03T18:10:32.915Z,28.27
2022-12-03T18:13:02.103Z,25.98
2022-12-03T18:15:30.699Z,27.88
2022-12-03T18:17:58.360Z,27.75
2022-12-03T18:20:25.963Z,28.52
2022-12-03T18:22:53.570Z,31.00
2022-12-03T18:25:21.179Z,28.67
2022-12-03T18:27:48.862Z,28.65
2022-12-03T18:30:16.482Z,31.13
2022-12-03T18:32:44.401Z,29.70
2022-12-03T18:35:11.976Z,30.63
2022-12-03T18:37:39.665Z,31.30
2022-12-03T18:40:13.199Z,30.90
2022-12-03T18:42:41.070Z,29.05
2022-12-03T18:45:11.613Z,28.92
2022-12-03T18:47:39.234Z,31.98
2022-12-03T18:50:07.710Z,31.05
2022-12-03T18:52:35.270Z,30.10
2022-12-03T18:55:05.904Z,29.90
2022-12-03T18:57:34.132Z,31.83
2022-12-03T19:00:01.712Z,33.35
2022-12-03T19:03:01.369Z,32.60
2022-12-03T19:05:17.284Z,32.28
2022-12-03T19:07:45.041Z,33.22
2022-12-03T19:10:12.903Z,34.13
2022-12-03T19:12:40.611Z,32.47
2022-12-03T19:15:08.662Z,33.85
2022-12-03T19:17:39.308Z,32.63
2022-12-03T19:20:11.818Z,32.63
2022-12-03T19:22:39.370Z,32.47
2022-12-03T19:25:07.091Z,31.17
2022-12-03T19:27:34.714Z,33.55
2022-12-03T19:30:02.275Z,31.70
2022-12-03T19:32:29.923Z,33.72
2022-12-03T19:34:57.471Z,33.60
2022-12-03T19:37:25.088Z,32.67
2022-12-03T19:39:55.590Z,32.58
2022-12-03T19:42:23.496Z,30.20
2022-12-03T19:44:52.336Z,33.40
2022-12-03T19:47:20.024Z,33.28
2022-12-03T19:49:47.606Z,31.75
2022-12-03T19:52:15.179Z,31.98
2022-12-03T19:54:42.791Z,33.40
2022-12-03T19:57:10.460Z,29.17
2022-12-03T19:59:38.213Z,32.05
2022-12-03T20:02:06.247Z,31.35
2022-12-03T20:04:33.938Z,31.88
2022-12-03T20:07:01.511Z,31.58
2022-12-03T20:09:29.136Z,28.33
2022-12-03T20:11:56.748Z,32.85
2022-12-03T20:14:24.381Z,34.30
2022-12-03T20:16:52.058Z,33.80
2022-12-03T20:19:19.659Z,33.55
2022-12-03T20:21:47.296Z,32.45
2022-12-03T20:24:17.060Z,34.10
2022-12-03T20:26:44.825Z,33.67
2022-12-03T20:29:12.792Z,33.05
2022-12-03T20:31:40.545Z,31.95
2022-12-03T20:34:08.220Z,33.95
2022-12-03T20:36:35.796Z,34.95
2022-12-03T20:39:06.804Z,35.30
2022-12-03T20:41:38.028Z,35.55
2022-12-03T20:44:07.577Z,34.65
2022-12-03T20:46:36.212Z,34.05
2022-12-03T20:49:04.237Z,36.38
2022-12-03T20:51:32.296Z,35.45
2022-12-03T20:54:01.017Z,36.25
2022-12-03T20:56:35.060Z,36.25
2022-12-03T20:59:13.833Z,36.50
2022-12-03T21:01:42.012Z,34.63
2022-12-03T21:04:10.881Z,34.80
2022-12-03T21:06:38.561Z,34.30
2022-12-03T21:09:07.246Z,36.10
2022-12-03T21:11:35.998Z,33.25
2022-12-03T21:14:04.156Z,35.28
2022-12-03T21:17:05.920Z,36.45
2022-12-03T21:19:22.757Z,33.92
2022-12-03T21:21:50.435Z,35.15
2022-12-03T21:24:18.006Z,37.72
2022-12-03T21:26:45.583Z,35.97
2022-12-03T21:29:13.169Z,37.72
2022-12-03T21:31:40.875Z,38.00
2022-12-03T21:34:08.877Z,39.00
2022-12-03T21:36:36.485Z,35.28
2022-12-03T21:39:05.271Z,35.95
2022-12-03T21:41:34.920Z,37.58
2022-12-03T21:44:02.840Z,35.38
2022-12-03T21:47:11.391Z,35.55
2022-12-03T21:49:19.486Z,32.75
2022-12-03T21:51:47.310Z,34.67
2022-12-03T21:54:15.407Z,34.72
2022-12-03T21:56:43.007Z,34.60
2022-12-03T21:59:10.597Z,33.63
2022-12-03T22:01:40.634Z,35.67
2022-12-03T22:04:11.636Z,34.75
2022-12-03T22:06:39.537Z,32.63
2022-12-03T22:09:08.639Z,34.28
2022-12-03T22:11:36.279Z,36.60
2022-12-03T22:14:04.765Z,35.40
2022-12-03T22:16:32.586Z,35.88
2022-12-03T22:19:00.287Z,36.03
2022-12-03T22:21:27.924Z,33.53
2022-12-03T22:23:56.550Z,35.22
2022-12-03T22:26:24.181Z,35.28
2022-12-03T22:28:51.861Z,36.20
2022-12-03T22:31:19.874Z,36.05
2022-12-03T22:33:49.611Z,36.75
2022-12-03T22:36:21.458Z,36.72
2022-12-03T22:38:50.438Z,35.58
2022-12-03T22:41:19.280Z,35.58
2022-12-03T22:43:47.570Z,38.13
2022-12-03T22:46:15.630Z,35.33
2022-12-03T22:48:45.449Z,34.92
2022-12-03T22:51:21.809Z,36.13
2022-12-03T22:56:22.361Z,33.72
2022-12-03T22:58:50.042Z,33.60
2022-12-03T23:01:28.079Z,31.50
2022-12-03T23:03:56.005Z,34.30
2022-12-03T23:06:24.270Z,34.50
2022-12-03T23:08:52.022Z,34.00
2022-12-03T23:11:20.269Z,33.28
2022-12-03T23:13:47.855Z,36.63
2022-12-03T23:16:22.758Z,36.78
2022-12-03T23:18:50.540Z,35.22
2022-12-03T23:21:24.036Z,35.83
2022-12-03T23:23:56.406Z,35.53
2022-12-03T23:26:24.035Z,30.92
2022-12-03T23:28:51.620Z,37.25
2022-12-03T23:31:27.790Z,34.13
2022-12-03T23:33:56.828Z,32.22
2022-12-03T23:36:25.943Z,31.05
2022-12-03T23:38:53.886Z,34.88
2022-12-03T23:41:23.138Z,34.47
2022-12-03T23:43:51.110Z,32.67
2022-12-03T23:46:24.902Z,35.15
2022-12-03T23:48:52.858Z,34.78
2022-12-03T23:51:23.985Z,28.90
2022-12-03T23:53:53.208Z,31.10
2022-12-03T23:56:27.291Z,35.95
2022-12-03T23:58:54.901Z,31.52
